Time;durP1;ratioP1;P1;durP2;ratioP2;P2;SDS_P1;SDS_P2;PMS_P1;PMS_P2;Temp;Humidity;BMP_temperature;BMP_pressure;BME280_temperature;BME280_humidity;BME280_pressure;Samples;Min_cycle;Max_cycle;Signal;HPM_P1;HPM_P2
2021/07/02 00:01:13;;;;;;;2.33;1.30;;;;;;;13.52;100.00;95706.91;5060777;28;20277;-81
2021/07/02 00:03:42;;;;;;;6.97;2.40;;;;;;;13.49;100.00;95715.28;5048985;28;20229;-80
2021/07/02 00:06:09;;;;;;;2.47;1.67;;;;;;;13.50;100.00;95708.94;5057274;28;20310;-81
2021/07/02 00:08:37;;;;;;;4.73;1.33;;;;;;;13.51;100.00;95713.22;5058384;28;20222;-81
2021/07/02 00:11:06;;;;;;;2.27;2.13;;;;;;;13.51;100.00;95710.56;5056592;28;20649;-82
2021/07/02 00:13:34;;;;;;;6.50;2.03;;;;;;;13.49;100.00;95712.63;5063345;28;20710;-82
2021/07/02 00:16:02;;;;;;;2.47;1.77;;;;;;;13.49;100.00;95708.13;5063102;28;20284;-81
2021/07/02 00:18:30;;;;;;;4.37;1.70;;;;;;;13.47;100.00;95712.00;5057447;28;20257;-81
2021/07/02 00:20:58;;;;;;;4.33;1.70;;;;;;;13.41;100.00;95712.81;5050408;28;20293;-81
2021/07/02 00:23:26;;;;;;;3.77;2.20;;;;;;;13.44;100.00;95709.75;5045350;28;20245;-81
2021/07/02 00:25:55;;;;;;;2.60;2.03;;;;;;;13.41;99.93;95713.63;5057275;28;20360;-81
2021/07/02 00:28:24;;;;;;;3.80;2.03;;;;;;;13.40;100.00;95703.22;5060753;28;20598;-82
2021/07/02 00:30:52;;;;;;;3.20;2.30;;;;;;;13.34;100.00;95695.03;5054468;28;20311;-83
2021/07/02 00:33:20;;;;;;;3.13;1.60;;;;;;;13.32;100.00;95702.38;5061118;28;20620;-82
2021/07/02 00:35:49;;;;;;;3.27;2.83;;;;;;;13.26;100.00;95702.38;5056223;28;20222;-82
2021/07/02 00:38:17;;;;;;;4.07;3.63;;;;;;;13.19;100.00;95702.34;5053085;28;20222;-82
2021/07/02 00:40:45;;;;;;;2.47;2.27;;;;;;;13.18;100.00;95695.38;5056978;28;20639;-81
2021/07/02 00:43:13;;;;;;;3.23;2.93;;;;;;;13.17;100.00;95703.53;5066495;28;20226;-82
2021/07/02 00:45:43;;;;;;;2.73;2.60;;;;;;;13.17;100.00;95698.25;5069673;28;20226;-81
2021/07/02 00:48:12;;;;;;;2.83;2.63;;;;;;;13.23;100.00;95692.97;5057514;28;20223;-82
2021/07/02 00:50:41;;;;;;;1.63;1.47;;;;;;;13.17;100.00;95693.75;5082610;28;20424;-82
2021/07/02 00:53:10;;;;;;;2.30;2.10;;;;;;;13.12;100.00;95690.88;5065726;28;20757;-82
2021/07/02 00:55:38;;;;;;;2.90;2.70;;;;;;;13.15;100.00;95697.59;5079720;28;20305;-82
2021/07/02 00:58:07;;;;;;;4.73;4.43;;;;;;;13.12;100.00;95698.81;5064219;28;20250;-82
2021/07/02 01:00:36;;;;;;;3.30;3.10;;;;;;;13.11;100.00;95694.53;5072156;28;20224;-83
2021/07/02 01:03:06;;;;;;;4.60;4.30;;;;;;;13.06;100.00;95686.34;5082542;28;20229;-82
2021/07/02 01:05:35;;;;;;;3.40;2.57;;;;;;;13.04;100.00;95683.09;5058870;28;20256;-82
2021/07/02 01:08:05;;;;;;;9.17;3.30;;;;;;;13.03;100.00;95687.56;5059364;28;20222;-81
2021/07/02 01:10:34;;;;;;;4.80;2.70;;;;;;;13.03;100.00;95686.75;5062779;28;20218;-81
2021/07/02 01:13:02;;;;;;;2.77;2.50;;;;;;;13.05;100.00;95687.38;5066849;28;20229;-81
2021/07/02 01:15:30;;;;;;;2.53;2.43;;;;;;;13.01;100.00;95672.91;5060030;28;20270;-81
2021/07/02 01:18:08;;;;;;;3.57;3.27;;;;;;;12.91;100.00;95669.81;5075436;28;20719;-81
2021/07/02 01:20:39;;;;;;;4.33;3.00;;;;;;;12.87;100.00;95672.03;5071465;28;20218;-80
2021/07/02 01:23:10;;;;;;;5.80;4.00;;;;;;;12.86;100.00;95688.13;5057125;28;20305;-81
2021/07/02 01:25:38;;;;;;;4.13;3.80;;;;;;;13.00;100.00;95680.03;5074674;28;20290;-80
2021/07/02 01:28:09;;;;;;;5.93;3.77;;;;;;;12.96;100.00;95677.97;5061765;28;20778;-81
2021/07/02 01:30:40;;;;;;;3.20;3.00;;;;;;;12.87;100.00;95666.72;5062809;28;20217;-81
2021/07/02 01:33:09;;;;;;;2.73;2.37;;;;;;;12.82;100.00;95664.69;5065653;28;20363;-81
2021/07/02 01:35:39;;;;;;;3.50;3.23;;;;;;;12.79;100.00;95675.66;5077401;28;20222;-81
2021/07/02 01:38:12;;;;;;;4.33;2.63;;;;;;;12.76;100.00;95673.41;5073986;28;20222;-81
2021/07/02 01:40:43;;;;;;;5.10;3.33;;;;;;;12.75;100.00;95666.47;5067431;28;20221;-80
2021/07/02 01:43:13;;;;;;;2.93;2.70;;;;;;;12.69;100.00;95675.19;5062571;28;20210;-81
2021/07/02 01:45:42;;;;;;;8.67;3.67;;;;;;;12.65;100.00;95668.69;5065221;28;20295;-80
2021/07/02 01:48:11;;;;;;;4.20;3.90;;;;;;;12.62;100.00;95673.53;5064525;28;20317;-80
2021/07/02 01:50:40;;;;;;;2.67;2.47;;;;;;;12.57;100.00;95670.66;5060292;28;20233;-81
2021/07/02 01:53:15;;;;;;;5.70;4.03;;;;;;;12.55;100.00;95670.88;5053213;28;20223;-80
2021/07/02 01:55:43;;;;;;;3.17;2.87;;;;;;;12.55;100.00;95673.50;5075922;28;20246;-80
2021/07/02 01:58:12;;;;;;;5.47;3.07;;;;;;;12.54;100.00;95661.31;5057047;28;20226;-81
2021/07/02 02:00:45;;;;;;;3.67;3.37;;;;;;;12.52;100.00;95663.31;5065762;28;20223;-80
2021/07/02 02:03:19;;;;;;;5.90;4.00;;;;;;;12.53;100.00;95672.91;5051389;28;20230;-80
2021/07/02 02:05:49;;;;;;;3.37;3.17;;;;;;;12.51;100.00;95672.25;5061085;28;20516;-80
2021/07/02 02:08:19;;;;;;;4.03;3.70;;;;;;;12.47;100.00;95676.31;5060981;28;20277;-81
2021/07/02 02:10:50;;;;;;;3.57;3.37;;;;;;;12.48;100.00;95672.66;5057895;28;20295;-80
2021/07/02 02:13:20;;;;;;;4.47;4.07;;;;;;;12.53;100.00;95683.50;5045520;28;20239;-80
2021/07/02 02:15:55;;;;;;;4.77;3.30;;;;;;;12.49;100.00;95679.59;5082373;28;20279;-80
2021/07/02 02:18:23;;;;;;;5.57;4.50;;;;;;;12.54;100.00;95682.47;5071659;28;20252;-82
2021/07/02 02:20:54;;;;;;;4.07;3.77;;;;;;;12.59;100.00;95679.22;5071054;28;20215;-82
2021/07/02 02:23:24;;;;;;;4.17;3.90;;;;;;;12.66;100.00;95680.91;5076583;28;20218;-81
2021/07/02 02:25:53;;;;;;;3.93;3.63;;;;;;;12.69;100.00;95677.84;5054516;28;20614;-81
2021/07/02 02:28:24;;;;;;;5.47;4.00;;;;;;;12.73;100.00;95671.16;5046249;28;20687;-80
2021/07/02 02:30:53;;;;;;;8.47;5.67;;;;;;;12.81;100.00;95671.00;5063126;28;20275;-81
2021/07/02 02:33:22;;;;;;;5.03;4.63;;;;;;;12.87;100.00;95687.09;5061858;28;20261;-80
2021/07/02 02:35:51;;;;;;;4.00;3.70;;;;;;;12.87;100.00;95676.50;5060049;28;20219;-81
2021/07/02 02:38:19;;;;;;;6.17;5.77;;;;;;;12.92;100.00;95676.75;5075148;28;20630;-81
2021/07/02 02:40:49;;;;;;;6.40;5.90;;;;;;;12.99;100.00;95677.59;5049504;28;20234;-81
2021/07/02 02:43:17;;;;;;;5.57;5.23;;;;;;;13.00;100.00;95671.28;5065647;28;20238;-80
2021/07/02 02:45:46;;;;;;;5.53;5.10;;;;;;;13.01;100.00;95663.13;5065284;28;20297;-80
2021/07/02 02:48:14;;;;;;;4.23;3.93;;;;;;;13.00;100.00;95666.78;5058218;28;20305;-81
2021/07/02 02:50:42;;;;;;;4.80;4.50;;;;;;;13.01;100.00;95667.59;5063926;28;20220;-81
2021/07/02 02:53:11;;;;;;;4.77;4.07;;;;;;;13.06;100.00;95675.75;5061821;28;20639;-81
2021/07/02 02:55:39;;;;;;;4.17;3.87;;;;;;;12.99;100.00;95667.81;5051865;28;20534;-81
2021/07/02 02:58:09;;;;;;;4.70;4.40;;;;;;;12.98;100.00;95673.28;5072088;28;20226;-80
2021/07/02 03:00:38;;;;;;;4.90;4.60;;;;;;;12.95;100.00;95673.69;5061460;28;20439;-80
2021/07/02 03:03:07;;;;;;;4.57;3.80;;;;;;;12.92;100.00;95669.63;5062044;28;20274;-80
2021/07/02 03:05:37;;;;;;;4.07;3.73;;;;;;;12.91;100.00;95669.81;5064341;28;20364;-80
2021/07/02 03:08:08;;;;;;;4.60;3.20;;;;;;;12.98;100.00;95678.59;5062860;28;20308;-80
2021/07/02 03:10:45;;;;;;;4.13;3.83;;;;;;;12.96;100.00;95672.66;5059997;28;20448;-80
2021/07/02 03:13:14;;;;;;;4.37;3.63;;;;;;;12.94;100.00;95677.34;5064671;28;20497;-80
2021/07/02 03:15:43;;;;;;;3.70;3.50;;;;;;;12.93;100.00;95673.06;5059796;28;20238;-81
2021/07/02 03:18:12;;;;;;;3.57;3.37;;;;;;;12.93;100.00;95670.44;5062851;28;20214;-80
2021/07/02 03:20:44;;;;;;;5.50;4.17;;;;;;;12.95;100.00;95673.69;5057936;28;20518;-80
2021/07/02 03:23:13;;;;;;;3.63;3.33;;;;;;;12.96;100.00;95676.13;5054437;28;20712;-80
2021/07/02 03:25:41;;;;;;;3.50;3.30;;;;;;;12.92;100.00;95684.69;5059593;28;20232;-80
2021/07/02 03:28:10;;;;;;;4.10;3.80;;;;;;;12.78;100.00;95679.31;5062014;28;20226;-81
2021/07/02 03:30:40;;;;;;;4.63;4.33;;;;;;;12.82;100.00;95677.94;5058794;28;20225;-80
2021/07/02 03:33:08;;;;;;;5.90;5.13;;;;;;;12.82;100.00;95680.56;5055051;28;20218;-80
2021/07/02 03:35:39;;;;;;;3.70;3.50;;;;;;;12.85;100.00;95676.72;5064710;28;20226;-80
2021/07/02 03:38:09;;;;;;;3.93;3.73;;;;;;;12.88;100.00;95678.13;5057644;28;20288;-80
2021/07/02 03:40:39;;;;;;;4.70;4.23;;;;;;;12.86;100.00;95685.47;5053580;28;20226;-80
2021/07/02 03:43:08;;;;;;;3.97;3.63;;;;;;;12.80;100.00;95687.91;5070428;28;20303;-80
2021/07/02 03:45:36;;;;;;;3.60;3.30;;;;;;;12.75;100.00;95685.03;5057833;28;20608;-80
2021/07/02 03:48:07;;;;;;;3.90;3.67;;;;;;;12.75;100.00;95686.84;5055675;28;20265;-80
2021/07/02 03:50:37;;;;;;;4.63;4.23;;;;;;;12.73;100.00;95687.06;5063476;28;20650;-80
2021/07/02 03:53:06;;;;;;;4.23;3.60;;;;;;;12.72;100.00;95685.41;5042104;28;20211;-80
2021/07/02 03:55:35;;;;;;;4.73;4.33;;;;;;;12.74;100.00;95699.28;5065027;28;20288;-80
2021/07/02 03:58:04;;;;;;;5.03;3.57;;;;;;;12.79;100.00;95702.13;5054731;28;20279;-80
2021/07/02 04:00:32;;;;;;;4.63;4.33;;;;;;;12.81;100.00;95697.47;5065214;28;20226;-80
2021/07/02 04:03:00;;;;;;;4.77;3.43;;;;;;;12.81;100.00;95694.84;5062037;28;20218;-80
2021/07/02 04:05:30;;;;;;;4.00;3.60;;;;;;;12.78;100.00;95689.91;5055951;28;20245;-80
2021/07/02 04:07:58;;;;;;;2.70;2.50;;;;;;;12.76;100.00;95688.47;5062918;28;20730;-80
2021/07/02 04:10:26;;;;;;;3.07;2.87;;;;;;;12.82;100.00;95685.88;5059436;28;20686;-80
2021/07/02 04:12:54;;;;;;;3.67;3.47;;;;;;;12.90;100.00;95690.19;5071340;28;20707;-80
2021/07/02 04:15:22;;;;;;;3.70;3.40;;;;;;;12.96;100.00;95683.25;5077012;28;20745;-80
2021/07/02 04:17:50;;;;;;;2.83;2.73;;;;;;;12.97;100.00;95679.59;5083076;28;20330;-80
2021/07/02 04:20:19;;;;;;;3.40;3.20;;;;;;;12.98;100.00;95679.41;5065980;28;20304;-80
2021/07/02 04:22:48;;;;;;;2.67;2.57;;;;;;;13.04;100.00;95688.41;5059446;28;20757;-80
2021/07/02 04:25:16;;;;;;;5.97;5.37;;;;;;;12.99;100.00;95683.72;5054550;28;20253;-80
2021/07/02 04:27:44;;;;;;;4.77;4.40;;;;;;;13.03;100.00;95686.75;5062252;28;20249;-80
2021/07/02 04:30:14;;;;;;;7.03;4.70;;;;;;;13.06;100.00;95691.66;5069097;28;20584;-80
2021/07/02 04:32:42;;;;;;;4.57;4.27;;;;;;;13.08;100.00;95694.94;5082536;28;20287;-80
2021/07/02 04:35:12;;;;;;;4.33;4.03;;;;;;;13.10;100.00;95693.72;5062289;28;20242;-81
2021/07/02 04:37:40;;;;;;;5.23;4.73;;;;;;;13.09;100.00;95696.59;5065339;28;20238;-81
2021/07/02 04:40:12;;;;;;;4.50;4.10;;;;;;;13.11;100.00;95694.53;5063579;28;20230;-81
2021/07/02 04:42:41;;;;;;;4.70;3.90;;;;;;;13.14;100.00;95694.13;5061759;28;20217;-81
2021/07/02 04:45:09;;;;;;;6.00;5.07;;;;;;;13.12;100.00;95695.34;5072080;28;20222;-82
2021/07/02 04:47:38;;;;;;;4.97;4.60;;;;;;;13.13;100.00;95692.50;5065096;28;20249;-82
2021/07/02 04:50:08;;;;;;;7.60;6.07;;;;;;;13.12;100.00;95693.53;5071564;28;20230;-81
2021/07/02 04:52:36;;;;;;;5.33;4.93;;;;;;;13.12;100.00;95698.81;5067681;28;20223;-82
2021/07/02 04:55:05;;;;;;;5.63;5.13;;;;;;;13.20;99.80;95696.03;5067379;28;20218;-82
2021/07/02 04:57:34;;;;;;;4.53;4.33;;;;;;;13.17;99.72;95699.06;5071518;28;20564;-82
2021/07/02 05:00:05;;;;;;;5.67;5.10;;;;;;;13.20;99.72;95703.16;5064457;28;20802;-82
2021/07/02 05:02:33;;;;;;;6.07;5.67;;;;;;;13.19;99.65;95699.69;5055256;28;20931;-81
2021/07/02 05:05:01;;;;;;;6.43;5.20;;;;;;;13.14;99.77;95699.44;5068019;28;20687;-81
2021/07/02 05:07:30;;;;;;;6.00;5.50;;;;;;;13.15;99.90;95695.75;5069539;28;20280;-81
2021/07/02 05:09:58;;;;;;;5.60;5.13;;;;;;;13.12;100.00;95701.47;5069270;28;20276;-81
2021/07/02 05:12:26;;;;;;;7.77;7.13;;;;;;;13.01;100.00;95696.75;5072582;28;20667;-81
2021/07/02 05:14:55;;;;;;;6.97;6.23;;;;;;;12.96;100.00;95704.47;5063548;28;20255;-81
2021/07/02 05:17:23;;;;;;;6.83;6.33;;;;;;;12.94;100.00;95702.00;5078556;28;20253;-81
2021/07/02 05:19:52;;;;;;;5.73;5.33;;;;;;;13.00;100.00;95709.19;5087932;28;20241;-81
2021/07/02 05:22:20;;;;;;;4.57;4.27;;;;;;;13.08;100.00;95706.38;5069624;28;20299;-81
2021/07/02 05:24:48;;;;;;;5.70;5.30;;;;;;;13.14;100.00;95709.22;5060702;28;20223;-81
2021/07/02 05:27:17;;;;;;;8.03;7.43;;;;;;;13.20;100.00;95714.56;5070697;28;20244;-81
2021/07/02 05:29:45;;;;;;;15.00;7.93;;;;;;;13.32;100.00;95720.94;5063925;28;20300;-80
2021/07/02 05:32:14;;;;;;;7.07;6.57;;;;;;;13.54;100.00;95715.50;5056789;28;20219;-81
2021/07/02 05:35:02;;;;;;;12.20;8.23;;;;;;;13.58;100.00;95722.03;5067848;28;20329;-80
2021/07/02 05:37:31;;;;;;;7.83;7.17;;;;;;;13.61;100.00;95721.63;5059201;28;20404;-80
2021/07/02 05:39:58;;;;;;;7.37;6.00;;;;;;;13.61;100.00;95719.78;5060862;28;20292;-80
2021/07/02 05:42:32;;;;;;;12.47;8.23;;;;;;;13.56;100.00;95721.41;5063767;28;20226;-80
2021/07/02 05:45:00;;;;;;;7.80;7.10;;;;;;;13.66;100.00;95722.66;5062659;28;20222;-80
2021/07/02 05:47:29;;;;;;;6.37;5.90;;;;;;;13.80;99.88;95720.81;5058253;28;20249;-81
2021/07/02 05:49:58;;;;;;;8.63;8.03;;;;;;;14.03;99.17;95719.63;5065170;28;20252;-80
2021/07/02 05:52:26;;;;;;;8.10;7.40;;;;;;;14.24;98.66;95722.06;5069884;28;20222;-80
2021/07/02 05:54:54;;;;;;;6.50;6.07;;;;;;;14.48;98.27;95724.13;5069032;28;20239;-80
2021/07/02 05:57:22;;;;;;;6.10;5.60;;;;;;;14.69;97.10;95724.91;5066668;28;20222;-81
2021/07/02 05:59:50;;;;;;;6.00;5.43;;;;;;;14.94;95.77;95715.25;5072213;28;20282;-81
2021/07/02 06:02:18;;;;;;;6.30;5.70;;;;;;;15.10;93.92;95721.13;5068477;28;20249;-80
2021/07/02 06:04:48;;;;;;;4.70;4.30;;;;;;;15.20;92.53;95726.81;5054372;28;20218;-80
2021/07/02 06:07:18;;;;;;;5.80;5.40;;;;;;;15.27;91.33;95722.25;5053809;28;20226;-80
2021/07/02 06:09:46;;;;;;;4.67;4.30;;;;;;;15.25;90.61;95729.63;5059140;28;20281;-81
2021/07/02 06:12:14;;;;;;;5.90;5.40;;;;;;;15.21;90.13;95729.25;5068712;28;20246;-80
2021/07/02 06:14:42;;;;;;;3.27;3.07;;;;;;;15.13;90.78;95728.69;5070594;28;20684;-80
2021/07/02 06:17:10;;;;;;;4.93;4.47;;;;;;;15.25;90.76;95735.78;5070982;28;20252;-81
2021/07/02 06:19:38;;;;;;;4.73;4.40;;;;;;;15.44;90.71;95728.72;5068103;28;20314;-81
2021/07/02 06:22:08;;;;;;;4.60;4.40;;;;;;;15.39;88.80;95736.53;5071973;28;20285;-80
2021/07/02 06:24:36;;;;;;;4.57;4.20;;;;;;;15.54;88.95;95742.38;5070291;28;20249;-83
2021/07/02 06:27:05;;;;;;;3.33;3.10;;;;;;;15.63;87.99;95733.19;5066546;28;20225;-83
2021/07/02 06:29:33;;;;;;;4.00;3.80;;;;;;;15.81;86.98;95740.41;5077360;28;20237;-83
2021/07/02 06:32:01;;;;;;;3.87;3.67;;;;;;;15.87;87.36;95736.91;5074413;28;20229;-82
2021/07/02 06:34:30;;;;;;;5.07;4.77;;;;;;;15.96;86.58;95737.47;5087673;28;20330;-82
2021/07/02 06:36:57;;;;;;;4.97;4.67;;;;;;;16.14;86.72;95734.06;5065544;28;20301;-83
2021/07/02 06:39:27;;;;;;;3.60;3.30;;;;;;;16.30;85.60;95733.53;5075769;28;20218;-83
2021/07/02 06:41:55;;;;;;;3.70;3.43;;;;;;;16.54;84.07;95742.53;5077789;28;20226;-83
2021/07/02 06:44:23;;;;;;;3.07;2.87;;;;;;;16.28;83.39;95740.94;5059371;28;20719;-83
2021/07/02 06:46:51;;;;;;;4.30;4.03;;;;;;;16.47;83.75;95755.13;5057493;28;20317;-83
2021/07/02 06:49:19;;;;;;;3.43;3.23;;;;;;;16.42;82.58;95741.63;5052629;28;20578;-85
2021/07/02 06:51:48;;;;;;;5.43;3.40;;;;;;;16.72;81.73;95753.25;5061173;28;20214;-84
2021/07/02 06:54:16;;;;;;;4.70;4.30;;;;;;;16.91;83.99;95750.63;5052323;28;20231;-86
2021/07/02 06:59:40;;;;;;;4.17;3.90;;;;;;;16.71;81.89;95762.28;5080990;27;20575;-80
2021/07/02 07:02:10;;;;;;;4.23;3.40;;;;;;;16.59;82.16;95766.69;5069398;28;20221;-80
2021/07/02 07:04:39;;;;;;;4.73;4.40;;;;;;;16.25;84.86;95762.66;5058971;28;20272;-80
2021/07/02 07:07:08;;;;;;;4.33;4.03;;;;;;;16.43;84.48;95760.03;5059972;28;20222;-80
2021/07/02 07:09:38;;;;;;;3.93;3.60;;;;;;;16.48;84.85;95762.06;5053051;28;20231;-80
2021/07/02 07:12:07;;;;;;;5.17;4.70;;;;;;;16.33;82.89;95753.59;5080660;28;20256;-79
2021/07/02 07:14:35;;;;;;;4.37;4.07;;;;;;;16.58;81.72;95757.06;5076290;28;20687;-80
2021/07/02 07:17:10;;;;;;;3.77;3.57;;;;;;;16.55;81.06;95759.34;5066739;28;20224;-82
2021/07/02 07:19:38;;;;;;;3.30;3.00;;;;;;;16.74;80.56;95761.06;5063447;28;20238;-81
2021/07/02 07:22:06;;;;;;;4.20;3.80;;;;;;;16.66;82.15;95764.78;5069769;28;20227;-83
2021/07/02 07:24:34;;;;;;;4.23;3.97;;;;;;;16.88;82.03;95761.72;5063421;28;20243;-82
2021/07/02 07:27:02;;;;;;;4.10;3.80;;;;;;;17.04;81.98;95767.31;5069724;28;20219;-82
2021/07/02 07:29:30;;;;;;;3.23;3.03;;;;;;;17.20;81.35;95768.56;5068209;28;20232;-81
2021/07/02 07:32:01;;;;;;;3.77;3.57;;;;;;;17.21;79.88;95767.53;5062243;28;20227;-82
2021/07/02 07:34:34;;;;;;;4.93;4.63;;;;;;;17.22;79.63;95765.69;5059613;28;20242;-82
2021/07/02 07:37:06;;;;;;;4.67;4.37;;;;;;;17.20;79.63;95773.91;5056832;28;20227;-83
2021/07/02 07:39:35;;;;;;;4.40;4.10;;;;;;;17.27;79.30;95774.63;5077784;28;20234;-81
2021/07/02 07:42:03;;;;;;;5.20;4.77;;;;;;;17.33;80.49;95779.06;5082049;28;20382;-81
2021/07/02 07:44:32;;;;;;;4.43;4.13;;;;;;;17.53;78.56;95772.69;5079450;28;20433;-83
2021/07/02 07:47:00;;;;;;;3.83;3.53;;;;;;;17.67;78.13;95771.50;5086608;28;20213;-81
2021/07/02 07:49:28;;;;;;;3.13;3.03;;;;;;;17.75;77.37;95773.88;5086201;28;20232;-81
2021/07/02 07:52:00;;;;;;;4.43;4.13;;;;;;;17.06;74.45;95769.75;5075473;28;20286;-81
2021/07/02 07:54:29;;;;;;;4.03;3.73;;;;;;;16.82;74.14;95775.91;5067005;28;20642;-80
2021/07/02 07:56:57;;;;;;;4.00;3.60;;;;;;;17.11;74.99;95767.25;5084627;28;20248;-81
2021/07/02 07:59:27;;;;;;;4.67;4.27;;;;;;;17.06;74.22;95769.75;5074918;28;21299;-82
2021/07/02 08:01:56;;;;;;;2.83;2.63;;;;;;;17.48;73.93;95769.88;5064033;28;20330;-83
2021/07/02 08:04:24;;;;;;;3.70;3.50;;;;;;;17.53;72.85;95770.00;5062510;28;20619;-81
2021/07/02 08:06:53;;;;;;;4.27;3.93;;;;;;;17.79;72.32;95758.22;5073403;28;20259;-79
2021/07/02 08:09:22;;;;;;;3.97;2.87;;;;;;;17.90;72.33;95758.25;5067798;28;20267;-80
2021/07/02 08:11:50;;;;;;;3.27;3.07;;;;;;;17.57;71.45;95763.22;5058345;28;20233;-81
2021/07/02 08:14:18;;;;;;;2.73;2.53;;;;;;;17.68;71.46;95751.75;5070243;28;20218;-80
2021/07/02 08:16:46;;;;;;;4.53;4.27;;;;;;;17.43;71.42;95765.22;5077295;28;20226;-80
2021/07/02 08:19:15;;;;;;;4.83;4.03;;;;;;;17.44;73.62;95774.03;5053888;28;20568;-84
2021/07/02 08:21:47;;;;;;;4.30;3.20;;;;;;;17.85;71.98;95770.66;5067505;28;20269;-81
2021/07/02 08:24:16;;;;;;;3.73;3.53;;;;;;;18.15;69.47;95770.66;5067685;28;20640;-82
2021/07/02 08:26:47;;;;;;;5.27;4.70;;;;;;;18.56;70.21;95766.28;5056197;28;20397;-81
2021/07/02 08:29:25;;;;;;;3.63;3.30;;;;;;;18.86;68.79;95769.72;5064272;28;20275;-82
2021/07/02 08:31:56;;;;;;;2.97;2.57;;;;;;;18.80;66.67;95767.97;5065827;28;20214;-82
2021/07/02 08:34:25;;;;;;;3.27;3.07;;;;;;;18.00;67.32;95765.72;5051186;28;20695;-80
2021/07/02 08:36:53;;;;;;;3.77;3.47;;;;;;;18.21;70.10;95769.75;5060587;28;20222;-82
2021/07/02 08:39:22;;;;;;;3.90;3.60;;;;;;;18.60;67.29;95764.81;5060082;28;20215;-82
2021/07/02 08:41:51;;;;;;;5.27;4.77;;;;;;;18.64;69.54;95773.97;5061763;28;20287;-81
2021/07/02 08:44:19;;;;;;;3.47;3.23;;;;;;;18.90;69.48;95760.19;5057972;28;20514;-81
2021/07/02 08:46:48;;;;;;;2.87;2.77;;;;;;;19.12;67.55;95762.28;5056744;28;20214;-82
2021/07/02 08:49:29;;;;;;;5.87;3.30;;;;;;;19.69;66.44;95765.88;5053899;28;20214;-82
2021/07/02 08:51:57;;;;;;;2.30;2.20;;;;;;;19.01;65.25;95767.38;5054562;28;20369;-81
2021/07/02 08:54:25;;;;;;;4.30;3.40;;;;;;;18.85;66.58;95772.63;5054029;28;20237;-82
2021/07/02 08:56:58;;;;;;;3.60;3.40;;;;;;;18.31;66.15;95782.53;5049280;28;20245;-82
2021/07/02 08:59:28;;;;;;;3.37;3.17;;;;;;;18.22;66.00;95774.03;5074596;22;20229;-82
2021/07/02 09:01:56;;;;;;;3.00;2.80;;;;;;;18.11;67.64;95777.50;5059045;28;20288;-81
2021/07/02 09:04:25;;;;;;;2.97;2.73;;;;;;;17.97;68.54;95770.69;5058727;28;20286;-83
2021/07/02 09:07:15;;;;;;;10.77;4.23;;;;;;;17.77;71.74;95770.97;5032375;28;20506;-83
2021/07/02 09:09:48;;;;;;;3.87;3.57;;;;;;;18.63;72.26;95775.03;5024530;28;20724;-83
2021/07/02 09:12:19;;;;;;;3.90;3.60;;;;;;;18.98;68.79;95773.19;5025483;28;20218;-83
2021/07/02 09:15:04;;;;;;;4.13;3.93;;;;;;;19.41;65.67;95766.63;5021021;28;20224;-82
2021/07/02 09:17:34;;;;;;;3.87;3.67;;;;;;;19.43;65.94;95756.50;5022735;28;20219;-81
2021/07/02 09:20:12;;;;;;;3.87;3.67;;;;;;;19.87;65.76;95764.88;5032700;28;20236;-83
2021/07/02 09:22:45;;;;;;;3.30;3.10;;;;;;;19.25;65.22;95778.88;5025612;28;20241;-84
2021/07/02 09:25:23;;;;;;;5.93;3.33;;;;;;;19.60;65.67;95776.16;5036789;28;20223;-82
2021/07/02 09:27:56;;;;;;;4.07;3.77;;;;;;;19.45;64.51;95773.13;5023252;28;20227;-81
2021/07/02 09:30:26;;;;;;;2.70;2.47;;;;;;;19.60;66.33;95764.63;5038143;28;20862;-81
2021/07/02 09:33:00;;;;;;;4.90;3.90;;;;;;;18.90;64.97;95773.53;5027696;28;20773;-82
2021/07/02 09:35:35;;;;;;;3.17;2.93;;;;;;;18.92;67.03;95779.47;5027324;28;20256;-82
2021/07/02 09:38:05;;;;;;;2.93;2.83;;;;;;;19.52;64.27;95771.13;5019517;28;20259;-80
2021/07/02 09:40:35;;;;;;;3.23;3.03;;;;;;;20.08;62.81;95776.78;5014289;28;20248;-79
2021/07/02 09:43:08;;;;;;;2.30;2.20;;;;;;;19.95;64.53;95764.50;5025417;28;20223;-80
2021/07/02 09:45:44;;;;;;;3.00;2.80;;;;;;;19.21;63.89;95766.22;5027654;28;20227;-82
2021/07/02 09:48:15;;;;;;;5.90;2.97;;;;;;;19.57;62.52;95771.28;5030225;28;20915;-79
2021/07/02 09:50:44;;;;;;;3.20;3.03;;;;;;;19.46;64.15;95777.44;5030363;28;20220;-81
2021/07/02 09:53:13;;;;;;;13.63;4.00;;;;;;;19.99;63.26;95773.69;5024513;28;20328;-82
2021/07/02 09:55:45;;;;;;;2.70;2.60;;;;;;;19.92;62.68;95778.34;5023551;28;20300;-79
2021/07/02 09:58:17;;;;;;;2.80;2.60;;;;;;;19.21;62.22;95780.41;5024366;28;20414;-82
2021/07/02 10:00:47;;;;;;;4.43;2.60;;;;;;;19.67;62.59;95776.03;5032405;28;20234;-81
2021/07/02 10:03:16;;;;;;;2.40;2.30;;;;;;;20.35;61.23;95782.34;5030232;28;20681;-83
2021/07/02 10:05:46;;;;;;;3.60;3.40;;;;;;;20.61;60.97;95771.03;5044750;28;20783;-81
2021/07/02 10:08:17;;;;;;;2.43;2.23;;;;;;;20.49;61.78;95759.59;5019464;28;20692;-82
2021/07/02 10:10:46;;;;;;;2.90;2.70;;;;;;;20.34;58.11;95765.47;5024881;28;20407;-82
2021/07/02 10:13:16;;;;;;;2.40;2.30;;;;;;;20.76;58.05;95761.56;5014454;28;20255;-82
2021/07/02 10:15:44;;;;;;;3.17;2.97;;;;;;;21.21;60.11;95767.63;5018271;28;20322;-81
2021/07/02 10:18:15;;;;;;;3.33;3.13;;;;;;;21.20;57.05;95767.84;5023631;28;20216;-82
2021/07/02 10:20:45;;;;;;;2.40;2.23;;;;;;;21.64;58.28;95768.72;5009852;28;20776;-80
2021/07/02 10:23:17;;;;;;;2.40;2.30;;;;;;;21.18;60.13;95765.41;5013958;28;20220;-81
2021/07/02 10:25:48;;;;;;;2.47;2.37;;;;;;;21.32;59.07;95762.44;5025477;28;20285;-82
2021/07/02 10:28:18;;;;;;;14.27;2.97;;;;;;;21.85;57.91;95749.09;5014756;28;20239;-83
2021/07/02 10:30:47;;;;;;;3.27;3.07;;;;;;;22.07;56.93;95762.53;5026918;28;20246;-81
2021/07/02 10:33:15;;;;;;;2.63;2.47;;;;;;;21.51;57.36;95763.75;5044723;28;20734;-83
2021/07/02 10:35:47;;;;;;;2.90;2.80;;;;;;;20.98;58.71;95770.50;5018406;28;20243;-84
2021/07/02 10:38:15;;;;;;;3.13;2.83;;;;;;;20.82;58.94;95761.41;5021990;28;20242;-83
2021/07/02 10:40:44;;;;;;;2.60;2.50;;;;;;;20.98;57.69;95759.78;5024211;28;20362;-82
2021/07/02 10:43:19;;;;;;;3.07;2.97;;;;;;;21.27;57.91;95763.97;5023193;28;20228;-83
2021/07/02 10:46:11;;;;;;;3.23;3.03;;;;;;;21.59;58.31;95771.38;5027959;28;20246;-81
2021/07/02 10:48:58;;;;;;;2.90;2.80;;;;;;;21.53;57.57;95766.97;5018899;28;20667;-79
2021/07/02 10:51:52;;;;;;;3.00;2.67;;;;;;;21.99;57.25;95759.44;5042789;28;20228;-82
2021/07/02 10:54:37;;;;;;;2.73;2.60;;;;;;;22.19;55.36;95770.41;5008932;28;20232;-80
2021/07/02 10:57:14;;;;;;;3.73;2.07;;;;;;;21.67;54.26;95757.50;5021752;28;20323;-80
2021/07/02 11:00:07;;;;;;;2.97;2.77;;;;;;;21.67;56.51;95760.19;5032107;28;20294;-80
2021/07/02 11:02:35;;;;;;;1.70;1.47;;;;;;;21.92;55.09;95756.94;5029225;28;20227;-80
2021/07/02 11:05:27;;;;;;;2.80;2.63;;;;;;;22.07;56.00;95756.34;5023066;28;20228;-80
2021/07/02 11:07:55;;;;;;;2.37;2.27;;;;;;;21.88;56.10;95744.28;5014808;28;20255;-80
2021/07/02 11:10:24;;;;;;;2.00;1.90;;;;;;;22.22;56.59;95748.44;5021351;28;20220;-81
2021/07/02 11:12:59;;;;;;;2.33;2.23;;;;;;;22.33;55.84;95760.09;5027588;28;20308;-81
2021/07/02 11:15:29;;;;;;;2.57;2.40;;;;;;;21.07;54.20;95754.81;5029167;28;20231;-82
2021/07/02 11:18:17;;;;;;;2.07;1.97;;;;;;;20.90;57.16;95757.50;5023000;28;20780;-81
2021/07/02 11:20:47;;;;;;;7.23;4.10;;;;;;;21.18;58.03;95761.94;5021026;28;20251;-82
2021/07/02 11:23:20;;;;;;;4.20;2.70;;;;;;;20.53;59.31;95757.22;5030862;28;20288;-80
2021/07/02 11:25:56;;;;;;;2.23;2.13;;;;;;;20.14;55.94;95760.56;5026919;28;20250;-81
2021/07/02 11:28:39;;;;;;;1.73;1.63;;;;;;;20.45;58.15;95767.28;5017538;28;20227;-80
2021/07/02 11:31:11;;;;;;;3.43;2.23;;;;;;;20.62;59.39;95764.59;5020721;28;20220;-81
2021/07/02 11:33:40;;;;;;;2.07;1.97;;;;;;;21.09;57.81;95761.53;5031873;28;20231;-81
2021/07/02 11:36:16;;;;;;;3.17;2.93;;;;;;;21.35;58.04;95767.28;5027226;28;20291;-80
2021/07/02 11:38:53;;;;;;;1.63;1.53;;;;;;;21.65;53.14;95761.47;5009750;28;20235;-80
2021/07/02 11:41:27;;;;;;;2.17;2.07;;;;;;;21.48;55.71;95753.47;5028689;28;20657;-79
2021/07/02 11:43:56;;;;;;;2.23;2.13;;;;;;;21.05;59.99;95757.75;5013073;28;20589;-83
2021/07/02 11:46:26;;;;;;;2.87;2.67;;;;;;;21.02;56.85;95755.53;5017166;28;20232;-79